sensor_id;sensor_type;location;lat;lon;timestamp;P1;P2;P0
44312;PMS5003;38833;51.142;-0.974;2024-03-02T00:00:59;6;5;
44312;PMS5003;38833;51.142;-0.974;2024-03-02T00:03:32;10;10;
44312;PMS5003;38833;51.142;-0.974;2024-03-02T00:06:06;5;3;
44312;PMS5003;38833;51.142;-0.974;2024-03-02T00:08:40;2;2;
44312;PMS5003;38833;51.142;-0.974;2024-03-02T00:11:13;1;1;
44312;PMS5003;38833;51.142;-0.974;2024-03-02T00:13:48;2;2;
44312;PMS5003;38833;51.142;-0.974;2024-03-02T00:16:21;2;2;
44312;PMS5003;38833;51.142;-0.974;2024-03-02T00:18:55;2;1;
44312;PMS5003;38833;51.142;-0.974;2024-03-02T00:21:28;3;3;
44312;PMS5003;38833;51.142;-0.974;2024-03-02T00:24:06;1;1;
44312;PMS5003;38833;51.142;-0.974;2024-03-02T00:26:51;2;2;
44312;PMS5003;38833;51.142;-0.974;2024-03-02T00:29:24;1;1;
44312;PMS5003;38833;51.142;-0.974;2024-03-02T00:31:58;2;2;
44312;PMS5003;38833;51.142;-0.974;2024-03-02T00:34:31;1;1;
44312;PMS5003;38833;51.142;-0.974;2024-03-02T00:37:05;1;1;
44312;PMS5003;38833;51.142;-0.974;2024-03-02T00:39:39;1;1;
44312;PMS5003;38833;51.142;-0.974;2024-03-02T00:42:13;3;2;
44312;PMS5003;38833;51.142;-0.974;2024-03-02T00:44:46;1;1;
44312;PMS5003;38833;51.142;-0.974;2024-03-02T00:47:19;2;1;
44312;PMS5003;38833;51.142;-0.974;2024-03-02T00:49:53;2;1;
44312;PMS5003;38833;51.142;-0.974;2024-03-02T00:52:26;1;1;
44312;PMS5003;38833;51.142;-0.974;2024-03-02T00:54:59;0;0;
44312;PMS5003;38833;51.142;-0.974;2024-03-02T00:57:33;1;1;
44312;PMS5003;38833;51.142;-0.974;2024-03-02T01:00:07;2;2;
44312;PMS5003;38833;51.142;-0.974;2024-03-02T01:02:41;2;0;
44312;PMS5003;38833;51.142;-0.974;2024-03-02T01:05:15;3;3;
44312;PMS5003;38833;51.142;-0.974;2024-03-02T01:07:48;3;1;
44312;PMS5003;38833;51.142;-0.974;2024-03-02T01:10:22;3;3;
44312;PMS5003;38833;51.142;-0.974;2024-03-02T01:12:55;2;2;
44312;PMS5003;38833;51.142;-0.974;2024-03-02T01:15:28;5;3;
44312;PMS5003;38833;51.142;-0.974;2024-03-02T01:18:02;4;4;
44312;PMS5003;38833;51.142;-0.974;2024-03-02T01:20:35;4;3;
44312;PMS5003;38833;51.142;-0.974;2024-03-02T01:23:09;4;4;
44312;PMS5003;38833;51.142;-0.974;2024-03-02T01:25:42;4;3;
44312;PMS5003;38833;51.142;-0.974;2024-03-02T01:28:15;1;1;
44312;PMS5003;38833;51.142;-0.974;2024-03-02T01:30:49;1;1;
44312;PMS5003;38833;51.142;-0.974;2024-03-02T01:33:22;3;2;
44312;PMS5003;38833;51.142;-0.974;2024-03-02T01:35:55;1;1;
44312;PMS5003;38833;51.142;-0.974;2024-03-02T01:38:29;2;2;
44312;PMS5003;38833;51.142;-0.974;2024-03-02T01:41:02;2;1;
44312;PMS5003;38833;51.142;-0.974;2024-03-02T01:43:35;1;1;
44312;PMS5003;38833;51.142;-0.974;2024-03-02T01:46:09;1;1;
44312;PMS5003;38833;51.142;-0.974;2024-03-02T01:48:42;0;0;
44312;PMS5003;38833;51.142;-0.974;2024-03-02T01:51:15;1;1;
44312;PMS5003;38833;51.142;-0.974;2024-03-02T01:53:49;1;1;
44312;PMS5003;38833;51.142;-0.974;2024-03-02T01:56:22;1;1;
44312;PMS5003;38833;51.142;-0.974;2024-03-02T01:58:55;3;1;
44312;PMS5003;38833;51.142;-0.974;2024-03-02T02:01:29;2;2;
44312;PMS5003;38833;51.142;-0.974;2024-03-02T02:04:02;2;2;
44312;PMS5003;38833;51.142;-0.974;2024-03-02T02:06:35;7;7;
44312;PMS5003;38833;51.142;-0.974;2024-03-02T02:09:09;11;11;
44312;PMS5003;38833;51.142;-0.974;2024-03-02T02:11:42;14;14;
44312;PMS5003;38833;51.142;-0.974;2024-03-02T02:14:15;14;14;
44312;PMS5003;38833;51.142;-0.974;2024-03-02T02:16:49;1;1;
44312;PMS5003;38833;51.142;-0.974;2024-03-02T02:19:22;1;1;
44312;PMS5003;38833;51.142;-0.974;2024-03-02T02:21:55;2;1;
44312;PMS5003;38833;51.142;-0.974;2024-03-02T02:24:28;1;1;
44312;PMS5003;38833;51.142;-0.974;2024-03-02T02:27:02;1;1;
44312;PMS5003;38833;51.142;-0.974;2024-03-02T02:29:35;2;2;
44312;PMS5003;38833;51.142;-0.974;2024-03-02T02:32:09;1;1;
44312;PMS5003;38833;51.142;-0.974;2024-03-02T02:34:42;0;0;
44312;PMS5003;38833;51.142;-0.974;2024-03-02T02:37:16;1;1;
44312;PMS5003;38833;51.142;-0.974;2024-03-02T02:39:49;1;1;
44312;PMS5003;38833;51.142;-0.974;2024-03-02T02:42:22;1;1;
44312;PMS5003;38833;51.142;-0.974;2024-03-02T02:44:55;0;0;
44312;PMS5003;38833;51.142;-0.974;2024-03-02T02:47:29;2;2;
44312;PMS5003;38833;51.142;-0.974;2024-03-02T02:50:02;2;1;
44312;PMS5003;38833;51.142;-0.974;2024-03-02T02:52:37;0;0;
44312;PMS5003;38833;51.142;-0.974;2024-03-02T02:55:12;3;3;
44312;PMS5003;38833;51.142;-0.974;2024-03-02T02:57:46;1;1;
44312;PMS5003;38833;51.142;-0.974;2024-03-02T03:00:20;3;2;
44312;PMS5003;38833;51.142;-0.974;2024-03-02T03:02:53;2;2;
44312;PMS5003;38833;51.142;-0.974;2024-03-02T03:05:26;1;1;
44312;PMS5003;38833;51.142;-0.974;2024-03-02T03:08:00;3;3;
44312;PMS5003;38833;51.142;-0.974;2024-03-02T03:10:33;2;2;
44312;PMS5003;38833;51.142;-0.974;2024-03-02T03:13:06;5;3;
44312;PMS5003;38833;51.142;-0.974;2024-03-02T03:15:40;5;5;
44312;PMS5003;38833;51.142;-0.974;2024-03-02T03:18:13;8;6;
44312;PMS5003;38833;51.142;-0.974;2024-03-02T03:20:46;10;8;
44312;PMS5003;38833;51.142;-0.974;2024-03-02T03:23:19;7;7;
44312;PMS5003;38833;51.142;-0.974;2024-03-02T03:25:53;3;3;
44312;PMS5003;38833;51.142;-0.974;2024-03-02T03:28:27;1;1;
44312;PMS5003;38833;51.142;-0.974;2024-03-02T03:31:00;2;2;
44312;PMS5003;38833;51.142;-0.974;2024-03-02T03:33:34;1;1;
44312;PMS5003;38833;51.142;-0.974;2024-03-02T03:36:07;1;1;
44312;PMS5003;38833;51.142;-0.974;2024-03-02T03:38:40;2;2;
44312;PMS5003;38833;51.142;-0.974;2024-03-02T03:41:13;3;2;
44312;PMS5003;38833;51.142;-0.974;2024-03-02T03:43:47;1;1;
44312;PMS5003;38833;51.142;-0.974;2024-03-02T03:46:20;3;1;
44312;PMS5003;38833;51.142;-0.974;2024-03-02T03:48:53;3;1;
44312;PMS5003;38833;51.142;-0.974;2024-03-02T03:51:27;1;1;
44312;PMS5003;38833;51.142;-0.974;2024-03-02T03:54:00;2;2;
44312;PMS5003;38833;51.142;-0.974;2024-03-02T03:56:33;2;2;
44312;PMS5003;38833;51.142;-0.974;2024-03-02T03:59:06;1;1;
44312;PMS5003;38833;51.142;-0.974;2024-03-02T04:01:40;3;1;
44312;PMS5003;38833;51.142;-0.974;2024-03-02T04:04:13;2;1;
44312;PMS5003;38833;51.142;-0.974;2024-03-02T04:06:47;0;0;
44312;PMS5003;38833;51.142;-0.974;2024-03-02T04:09:20;1;1;
44312;PMS5003;38833;51.142;-0.974;2024-03-02T04:11:53;1;1;
44312;PMS5003;38833;51.142;-0.974;2024-03-02T04:14:27;1;1;
44312;PMS5003;38833;51.142;-0.974;2024-03-02T04:17:00;2;1;
44312;PMS5003;38833;51.142;-0.974;2024-03-02T04:19:33;1;1;
44312;PMS5003;38833;51.142;-0.974;2024-03-02T04:22:06;2;2;
44312;PMS5003;38833;51.142;-0.974;2024-03-02T04:24:40;1;0;
44312;PMS5003;38833;51.142;-0.974;2024-03-02T04:27:13;1;1;
44312;PMS5003;38833;51.142;-0.974;2024-03-02T04:29:46;1;1;
44312;PMS5003;38833;51.142;-0.974;2024-03-02T04:32:20;1;1;
44312;PMS5003;38833;51.142;-0.974;2024-03-02T04:34:53;1;0;
44312;PMS5003;38833;51.142;-0.974;2024-03-02T04:37:26;1;1;
44312;PMS5003;38833;51.142;-0.974;2024-03-02T04:40:00;3;1;
44312;PMS5003;38833;51.142;-0.974;2024-03-02T04:42:33;3;1;
44312;PMS5003;38833;51.142;-0.974;2024-03-02T04:45:07;2;2;
44312;PMS5003;38833;51.142;-0.974;2024-03-02T04:47:41;2;2;
44312;PMS5003;38833;51.142;-0.974;2024-03-02T04:50:14;0;0;
44312;PMS5003;38833;51.142;-0.974;2024-03-02T04:52:47;0;0;
44312;PMS5003;38833;51.142;-0.974;2024-03-02T04:55:21;1;1;
44312;PMS5003;38833;51.142;-0.974;2024-03-02T04:57:54;2;1;
44312;PMS5003;38833;51.142;-0.974;2024-03-02T05:00:27;0;0;
44312;PMS5003;38833;51.142;-0.974;2024-03-02T05:03:00;5;5;
44312;PMS5003;38833;51.142;-0.974;2024-03-02T05:05:34;7;7;
44312;PMS5003;38833;51.142;-0.974;2024-03-02T05:08:07;4;4;
44312;PMS5003;38833;51.142;-0.974;2024-03-02T05:10:41;2;2;
44312;PMS5003;38833;51.142;-0.974;2024-03-02T05:13:14;5;3;
44312;PMS5003;38833;51.142;-0.974;2024-03-02T05:15:47;1;1;
44312;PMS5003;38833;51.142;-0.974;2024-03-02T05:18:20;2;2;
44312;PMS5003;38833;51.142;-0.974;2024-03-02T05:20:54;2;2;
44312;PMS5003;38833;51.142;-0.974;2024-03-02T05:23:27;2;2;
44312;PMS5003;38833;51.142;-0.974;2024-03-02T05:26:00;1;1;
44312;PMS5003;38833;51.142;-0.974;2024-03-02T05:28:33;2;1;
44312;PMS5003;38833;51.142;-0.974;2024-03-02T05:31:10;2;2;
44312;PMS5003;38833;51.142;-0.974;2024-03-02T05:33:43;2;2;
44312;PMS5003;38833;51.142;-0.974;2024-03-02T05:36:17;3;2;
44312;PMS5003;38833;51.142;-0.974;2024-03-02T05:38:50;2;2;
44312;PMS5003;38833;51.142;-0.974;2024-03-02T05:41:23;2;2;
44312;PMS5003;38833;51.142;-0.974;2024-03-02T05:43:56;0;0;
44312;PMS5003;38833;51.142;-0.974;2024-03-02T05:46:30;6;1;
44312;PMS5003;38833;51.142;-0.974;2024-03-02T05:49:03;0;0;
44312;PMS5003;38833;51.142;-0.974;2024-03-02T05:51:36;0;0;
44312;PMS5003;38833;51.142;-0.974;2024-03-02T05:54:09;1;1;
44312;PMS5003;38833;51.142;-0.974;2024-03-02T05:56:43;2;2;
44312;PMS5003;38833;51.142;-0.974;2024-03-02T05:59:16;2;2;
44312;PMS5003;38833;51.142;-0.974;2024-03-02T06:01:49;0;0;
44312;PMS5003;38833;51.142;-0.974;2024-03-02T06:04:22;2;2;
44312;PMS5003;38833;51.142;-0.974;2024-03-02T06:06:56;1;1;
44312;PMS5003;38833;51.142;-0.974;2024-03-02T06:09:29;8;8;
44312;PMS5003;38833;51.142;-0.974;2024-03-02T06:12:02;2;2;
44312;PMS5003;38833;51.142;-0.974;2024-03-02T06:14:36;0;0;
44312;PMS5003;38833;51.142;-0.974;2024-03-02T06:17:09;1;1;
44312;PMS5003;38833;51.142;-0.974;2024-03-02T06:19:42;2;1;
44312;PMS5003;38833;51.142;-0.974;2024-03-02T06:22:16;3;1;
44312;PMS5003;38833;51.142;-0.974;2024-03-02T06:24:50;1;1;
44312;PMS5003;38833;51.142;-0.974;2024-03-02T06:27:23;1;1;
44312;PMS5003;38833;51.142;-0.974;2024-03-02T06:29:56;0;0;
44312;PMS5003;38833;51.142;-0.974;2024-03-02T06:32:30;1;1;
44312;PMS5003;38833;51.142;-0.974;2024-03-02T06:35:03;2;2;
44312;PMS5003;38833;51.142;-0.974;2024-03-02T06:37:38;1;1;
44312;PMS5003;38833;51.142;-0.974;2024-03-02T06:40:11;0;0;
44312;PMS5003;38833;51.142;-0.974;2024-03-02T06:42:44;1;1;
44312;PMS5003;38833;51.142;-0.974;2024-03-02T06:45:18;1;1;
44312;PMS5003;38833;51.142;-0.974;2024-03-02T06:47:51;1;1;
44312;PMS5003;38833;51.142;-0.974;2024-03-02T06:50:24;0;0;
44312;PMS5003;38833;51.142;-0.974;2024-03-02T06:52:58;1;1;
44312;PMS5003;38833;51.142;-0.974;2024-03-02T06:55:31;1;1;
44312;PMS5003;38833;51.142;-0.974;2024-03-02T06:58:04;0;0;
44312;PMS5003;38833;51.142;-0.974;2024-03-02T07:00:38;2;2;
44312;PMS5003;38833;51.142;-0.974;2024-03-02T07:03:11;1;1;
44312;PMS5003;38833;51.142;-0.974;2024-03-02T07:05:45;1;1;
44312;PMS5003;38833;51.142;-0.974;2024-03-02T07:08:18;1;1;
44312;PMS5003;38833;51.142;-0.974;2024-03-02T07:10:51;2;2;
44312;PMS5003;38833;51.142;-0.974;2024-03-02T07:13:24;1;1;
44312;PMS5003;38833;51.142;-0.974;2024-03-02T07:15:58;2;2;
44312;PMS5003;38833;51.142;-0.974;2024-03-02T07:18:31;1;1;
44312;PMS5003;38833;51.142;-0.974;2024-03-02T07:21:05;0;0;
44312;PMS5003;38833;51.142;-0.974;2024-03-02T07:23:38;1;1;
44312;PMS5003;38833;51.142;-0.974;2024-03-02T07:26:11;1;1;
44312;PMS5003;38833;51.142;-0.974;2024-03-02T07:28:45;1;1;
44312;PMS5003;38833;51.142;-0.974;2024-03-02T07:31:19;2;1;
44312;PMS5003;38833;51.142;-0.974;2024-03-02T07:33:52;0;0;
44312;PMS5003;38833;51.142;-0.974;2024-03-02T07:36:25;1;1;
44312;PMS5003;38833;51.142;-0.974;2024-03-02T07:38:59;1;1;
44312;PMS5003;38833;51.142;-0.974;2024-03-02T07:41:32;1;1;
44312;PMS5003;38833;51.142;-0.974;2024-03-02T07:44:05;1;1;
44312;PMS5003;38833;51.142;-0.974;2024-03-02T07:46:39;1;1;
44312;PMS5003;38833;51.142;-0.974;2024-03-02T07:49:12;1;1;
44312;PMS5003;38833;51.142;-0.974;2024-03-02T07:51:46;1;1;
44312;PMS5003;38833;51.142;-0.974;2024-03-02T07:54:19;1;1;
44312;PMS5003;38833;51.142;-0.974;2024-03-02T07:56:52;1;1;
44312;PMS5003;38833;51.142;-0.974;2024-03-02T07:59:26;1;1;
44312;PMS5003;38833;51.142;-0.974;2024-03-02T08:01:59;0;0;
44312;PMS5003;38833;51.142;-0.974;2024-03-02T08:04:33;0;0;
44312;PMS5003;38833;51.142;-0.974;2024-03-02T08:07:06;2;2;
44312;PMS5003;38833;51.142;-0.974;2024-03-02T08:09:40;1;1;
44312;PMS5003;38833;51.142;-0.974;2024-03-02T08:12:13;2;0;
44312;PMS5003;38833;51.142;-0.974;2024-03-02T08:14:46;1;1;
44312;PMS5003;38833;51.142;-0.974;2024-03-02T08:17:20;1;1;
44312;PMS5003;38833;51.142;-0.974;2024-03-02T08:19:53;1;0;
44312;PMS5003;38833;51.142;-0.974;2024-03-02T08:22:27;2;2;
44312;PMS5003;38833;51.142;-0.974;2024-03-02T08:25:00;3;1;
44312;PMS5003;38833;51.142;-0.974;2024-03-02T08:27:33;1;1;
44312;PMS5003;38833;51.142;-0.974;2024-03-02T08:30:07;2;2;
44312;PMS5003;38833;51.142;-0.974;2024-03-02T08:32:41;2;2;
44312;PMS5003;38833;51.142;-0.974;2024-03-02T08:35:14;2;2;
44312;PMS5003;38833;51.142;-0.974;2024-03-02T08:37:48;0;0;
44312;PMS5003;38833;51.142;-0.974;2024-03-02T08:40:21;1;1;
44312;PMS5003;38833;51.142;-0.974;2024-03-02T08:42:55;2;0;
44312;PMS5003;38833;51.142;-0.974;2024-03-02T08:45:28;1;1;
44312;PMS5003;38833;51.142;-0.974;2024-03-02T08:48:01;0;0;
44312;PMS5003;38833;51.142;-0.974;2024-03-02T08:50:35;1;1;
44312;PMS5003;38833;51.142;-0.974;2024-03-02T08:53:09;2;2;
44312;PMS5003;38833;51.142;-0.974;2024-03-02T08:55:42;3;3;
44312;PMS5003;38833;51.142;-0.974;2024-03-02T08:58:15;5;5;
44312;PMS5003;38833;51.142;-0.974;2024-03-02T09:00:48;4;4;
44312;PMS5003;38833;51.142;-0.974;2024-03-02T09:03:22;6;5;
44312;PMS5003;38833;51.142;-0.974;2024-03-02T09:05:55;7;7;
44312;PMS5003;38833;51.142;-0.974;2024-03-02T09:08:29;9;9;
44312;PMS5003;38833;51.142;-0.974;2024-03-02T09:11:02;13;12;
44312;PMS5003;38833;51.142;-0.974;2024-03-02T09:13:36;12;12;
44312;PMS5003;38833;51.142;-0.974;2024-03-02T09:16:10;13;13;
44312;PMS5003;38833;51.142;-0.974;2024-03-02T09:18:44;15;15;
44312;PMS5003;38833;51.142;-0.974;2024-03-02T09:21:17;15;12;
44312;PMS5003;38833;51.142;-0.974;2024-03-02T09:23:51;14;14;
44312;PMS5003;38833;51.142;-0.974;2024-03-02T09:26:24;14;13;
44312;PMS5003;38833;51.142;-0.974;2024-03-02T09:28:57;10;10;
44312;PMS5003;38833;51.142;-0.974;2024-03-02T09:31:30;8;8;
44312;PMS5003;38833;51.142;-0.974;2024-03-02T09:34:04;11;11;
44312;PMS5003;38833;51.142;-0.974;2024-03-02T09:36:37;11;11;
44312;PMS5003;38833;51.142;-0.974;2024-03-02T09:39:11;9;9;
44312;PMS5003;38833;51.142;-0.974;2024-03-02T09:41:44;9;9;
44312;PMS5003;38833;51.142;-0.974;2024-03-02T09:44:18;12;9;
44312;PMS5003;38833;51.142;-0.974;2024-03-02T09:46:51;6;6;
44312;PMS5003;38833;51.142;-0.974;2024-03-02T09:49:25;9;9;
44312;PMS5003;38833;51.142;-0.974;2024-03-02T09:51:58;7;7;
44312;PMS5003;38833;51.142;-0.974;2024-03-02T09:54:32;7;7;
44312;PMS5003;38833;51.142;-0.974;2024-03-02T09:57:05;8;8;
44312;PMS5003;38833;51.142;-0.974;2024-03-02T09:59:38;8;8;
44312;PMS5003;38833;51.142;-0.974;2024-03-02T10:02:12;11;10;
44312;PMS5003;38833;51.142;-0.974;2024-03-02T10:04:45;7;7;
44312;PMS5003;38833;51.142;-0.974;2024-03-02T10:07:22;6;6;
44312;PMS5003;38833;51.142;-0.974;2024-03-02T10:09:55;7;7;
44312;PMS5003;38833;51.142;-0.974;2024-03-02T10:12:29;7;7;
44312;PMS5003;38833;51.142;-0.974;2024-03-02T10:15:02;6;6;
44312;PMS5003;38833;51.142;-0.974;2024-03-02T10:17:37;5;5;
44312;PMS5003;38833;51.142;-0.974;2024-03-02T10:20:26;4;4;
44312;PMS5003;38833;51.142;-0.974;2024-03-02T10:23:09;3;3;
44312;PMS5003;38833;51.142;-0.974;2024-03-02T10:25:44;5;5;
44312;PMS5003;38833;51.142;-0.974;2024-03-02T10:28:18;4;4;
44312;PMS5003;38833;51.142;-0.974;2024-03-02T10:30:51;6;5;
44312;PMS5003;38833;51.142;-0.974;2024-03-02T10:33:24;4;3;
44312;PMS5003;38833;51.142;-0.974;2024-03-02T10:35:58;5;3;
44312;PMS5003;38833;51.142;-0.974;2024-03-02T10:38:31;3;3;
44312;PMS5003;38833;51.142;-0.974;2024-03-02T10:41:04;5;4;
44312;PMS5003;38833;51.142;-0.974;2024-03-02T10:43:38;4;4;
44312;PMS5003;38833;51.142;-0.974;2024-03-02T10:46:11;3;3;
44312;PMS5003;38833;51.142;-0.974;2024-03-02T10:48:47;3;3;
44312;PMS5003;38833;51.142;-0.974;2024-03-02T10:51:20;2;2;
44312;PMS5003;38833;51.142;-0.974;2024-03-02T10:53:53;4;4;
44312;PMS5003;38833;51.142;-0.974;2024-03-02T10:56:28;3;3;
44312;PMS5003;38833;51.142;-0.974;2024-03-02T10:59:05;4;4;
44312;PMS5003;38833;51.142;-0.974;2024-03-02T11:01:48;2;2;
44312;PMS5003;38833;51.142;-0.974;2024-03-02T11:04:23;2;2;
44312;PMS5003;38833;51.142;-0.974;2024-03-02T11:06:59;3;3;
44312;PMS5003;38833;51.142;-0.974;2024-03-02T11:09:37;4;4;
44312;PMS5003;38833;51.142;-0.974;2024-03-02T11:12:16;3;3;
44312;PMS5003;38833;51.142;-0.974;2024-03-02T11:14:55;4;4;
44312;PMS5003;38833;51.142;-0.974;2024-03-02T11:17:29;3;3;
44312;PMS5003;38833;51.142;-0.974;2024-03-02T11:20:03;3;3;
44312;PMS5003;38833;51.142;-0.974;2024-03-02T11:22:37;4;2;
44312;PMS5003;38833;51.142;-0.974;2024-03-02T11:25:22;3;2;
44312;PMS5003;38833;51.142;-0.974;2024-03-02T11:28:00;2;2;
44312;PMS5003;38833;51.142;-0.974;2024-03-02T11:30:51;5;3;
44312;PMS5003;38833;51.142;-0.974;2024-03-02T11:33:25;3;3;
44312;PMS5003;38833;51.142;-0.974;2024-03-02T11:35:59;3;3;
44312;PMS5003;38833;51.142;-0.974;2024-03-02T11:38:34;3;3;
44312;PMS5003;38833;51.142;-0.974;2024-03-02T11:41:08;5;4;
44312;PMS5003;38833;51.142;-0.974;2024-03-02T11:43:42;2;2;
44312;PMS5003;38833;51.142;-0.974;2024-03-02T11:46:15;4;4;
44312;PMS5003;38833;51.142;-0.974;2024-03-02T11:48:49;3;3;
44312;PMS5003;38833;51.142;-0.974;2024-03-02T11:51:22;2;2;
44312;PMS5003;38833;51.142;-0.974;2024-03-02T11:53:55;3;2;
44312;PMS5003;38833;51.142;-0.974;2024-03-02T11:56:30;4;4;
44312;PMS5003;38833;51.142;-0.974;2024-03-02T11:59:04;4;3;
44312;PMS5003;38833;51.142;-0.974;2024-03-02T12:01:38;3;3;
44312;PMS5003;38833;51.142;-0.974;2024-03-02T12:04:12;3;2;
44312;PMS5003;38833;51.142;-0.974;2024-03-02T12:06:46;2;2;
44312;PMS5003;38833;51.142;-0.974;2024-03-02T12:09:20;3;3;
44312;PMS5003;38833;51.142;-0.974;2024-03-02T12:12:02;2;2;
44312;PMS5003;38833;51.142;-0.974;2024-03-02T12:14:37;3;3;
44312;PMS5003;38833;51.142;-0.974;2024-03-02T12:17:10;2;2;
44312;PMS5003;38833;51.142;-0.974;2024-03-02T12:19:44;3;3;
44312;PMS5003;38833;51.142;-0.974;2024-03-02T12:22:17;2;2;
44312;PMS5003;38833;51.142;-0.974;2024-03-02T12:24:51;3;3;
44312;PMS5003;38833;51.142;-0.974;2024-03-02T12:27:25;3;3;
44312;PMS5003;38833;51.142;-0.974;2024-03-02T12:29:58;2;2;
44312;PMS5003;38833;51.142;-0.974;2024-03-02T12:32:31;4;4;
44312;PMS5003;38833;51.142;-0.974;2024-03-02T12:35:05;2;2;
44312;PMS5003;38833;51.142;-0.974;2024-03-02T12:37:42;3;3;
44312;PMS5003;38833;51.142;-0.974;2024-03-02T12:40:17;3;3;
44312;PMS5003;38833;51.142;-0.974;2024-03-02T12:42:52;5;4;
44312;PMS5003;38833;51.142;-0.974;2024-03-02T12:47:28;2;2;
44312;PMS5003;38833;51.142;-0.974;2024-03-02T12:50:01;3;3;
44312;PMS5003;38833;51.142;-0.974;2024-03-02T12:52:36;2;2;
44312;PMS5003;38833;51.142;-0.974;2024-03-02T12:55:09;2;2;
44312;PMS5003;38833;51.142;-0.974;2024-03-02T12:57:43;4;3;
44312;PMS5003;38833;51.142;-0.974;2024-03-02T13:00:17;2;2;
44312;PMS5003;38833;51.142;-0.974;2024-03-02T13:02:51;2;2;
44312;PMS5003;38833;51.142;-0.974;2024-03-02T13:05:25;2;2;
44312;PMS5003;38833;51.142;-0.974;2024-03-02T13:08:02;3;3;
44312;PMS5003;38833;51.142;-0.974;2024-03-02T13:10:36;2;2;
44312;PMS5003;38833;51.142;-0.974;2024-03-02T13:13:10;3;3;
44312;PMS5003;38833;51.142;-0.974;2024-03-02T13:15:44;3;3;
44312;PMS5003;38833;51.142;-0.974;2024-03-02T13:18:17;3;3;
44312;PMS5003;38833;51.142;-0.974;2024-03-02T13:20:51;3;3;
44312;PMS5003;38833;51.142;-0.974;2024-03-02T13:23:24;2;2;
44312;PMS5003;38833;51.142;-0.974;2024-03-02T13:25:58;3;3;
44312;PMS5003;38833;51.142;-0.974;2024-03-02T13:28:31;2;2;
44312;PMS5003;38833;51.142;-0.974;2024-03-02T13:31:04;3;3;
44312;PMS5003;38833;51.142;-0.974;2024-03-02T13:33:38;2;2;
44312;PMS5003;38833;51.142;-0.974;2024-03-02T13:36:11;4;4;
44312;PMS5003;38833;51.142;-0.974;2024-03-02T13:38:45;5;4;
44312;PMS5003;38833;51.142;-0.974;2024-03-02T13:41:18;6;4;
44312;PMS5003;38833;51.142;-0.974;2024-03-02T13:43:52;4;4;
44312;PMS5003;38833;51.142;-0.974;2024-03-02T13:46:25;4;4;
44312;PMS5003;38833;51.142;-0.974;2024-03-02T13:48:58;4;4;
44312;PMS5003;38833;51.142;-0.974;2024-03-02T13:51:31;4;4;
44312;PMS5003;38833;51.142;-0.974;2024-03-02T13:54:05;6;6;
44312;PMS5003;38833;51.142;-0.974;2024-03-02T13:56:38;9;9;
44312;PMS5003;38833;51.142;-0.974;2024-03-02T13:59:11;15;15;
44312;PMS5003;38833;51.142;-0.974;2024-03-02T14:01:45;22;22;
44312;PMS5003;38833;51.142;-0.974;2024-03-02T14:04:18;28;28;
44312;PMS5003;38833;51.142;-0.974;2024-03-02T14:06:52;18;17;
44312;PMS5003;38833;51.142;-0.974;2024-03-02T14:09:25;10;10;
44312;PMS5003;38833;51.142;-0.974;2024-03-02T14:11:59;5;5;
44312;PMS5003;38833;51.142;-0.974;2024-03-02T14:14:33;4;3;
44312;PMS5003;38833;51.142;-0.974;2024-03-02T14:17:06;2;2;
44312;PMS5003;38833;51.142;-0.974;2024-03-02T14:19:40;2;2;
44312;PMS5003;38833;51.142;-0.974;2024-03-02T14:22:13;2;1;
44312;PMS5003;38833;51.142;-0.974;2024-03-02T14:24:46;3;3;
44312;PMS5003;38833;51.142;-0.974;2024-03-02T14:27:20;1;1;
44312;PMS5003;38833;51.142;-0.974;2024-03-02T14:29:53;2;2;
44312;PMS5003;38833;51.142;-0.974;2024-03-02T14:32:27;2;2;
44312;PMS5003;38833;51.142;-0.974;2024-03-02T14:35:36;1;1;
44312;PMS5003;38833;51.142;-0.974;2024-03-02T14:38:09;0;0;
44312;PMS5003;38833;51.142;-0.974;2024-03-02T14:40:42;2;2;
44312;PMS5003;38833;51.142;-0.974;2024-03-02T14:43:16;3;2;
44312;PMS5003;38833;51.142;-0.974;2024-03-02T14:45:49;3;2;
44312;PMS5003;38833;51.142;-0.974;2024-03-02T14:48:23;2;2;
44312;PMS5003;38833;51.142;-0.974;2024-03-02T14:50:56;0;0;
44312;PMS5003;38833;51.142;-0.974;2024-03-02T14:53:30;2;2;
44312;PMS5003;38833;51.142;-0.974;2024-03-02T14:56:03;1;1;
44312;PMS5003;38833;51.142;-0.974;2024-03-02T14:58:38;2;2;
44312;PMS5003;38833;51.142;-0.974;2024-03-02T15:01:11;1;1;
44312;PMS5003;38833;51.142;-0.974;2024-03-02T15:03:44;1;1;
44312;PMS5003;38833;51.142;-0.974;2024-03-02T15:06:18;2;1;
44312;PMS5003;38833;51.142;-0.974;2024-03-02T15:08:51;0;0;
44312;PMS5003;38833;51.142;-0.974;2024-03-02T15:11:24;2;2;
44312;PMS5003;38833;51.142;-0.974;2024-03-02T15:13:58;0;0;
44312;PMS5003;38833;51.142;-0.974;2024-03-02T15:16:31;3;1;
44312;PMS5003;38833;51.142;-0.974;2024-03-02T15:19:04;0;0;
44312;PMS5003;38833;51.142;-0.974;2024-03-02T15:21:38;1;1;
44312;PMS5003;38833;51.142;-0.974;2024-03-02T15:24:11;1;1;
44312;PMS5003;38833;51.142;-0.974;2024-03-02T15:26:44;1;1;
44312;PMS5003;38833;51.142;-0.974;2024-03-02T15:29:17;1;1;
44312;PMS5003;38833;51.142;-0.974;2024-03-02T15:31:51;1;1;
44312;PMS5003;38833;51.142;-0.974;2024-03-02T15:34:24;2;2;
44312;PMS5003;38833;51.142;-0.974;2024-03-02T15:36:58;1;1;
44312;PMS5003;38833;51.142;-0.974;2024-03-02T15:39:31;2;2;
44312;PMS5003;38833;51.142;-0.974;2024-03-02T15:42:05;1;1;
44312;PMS5003;38833;51.142;-0.974;2024-03-02T15:44:39;1;1;
44312;PMS5003;38833;51.142;-0.974;2024-03-02T15:47:12;1;1;
44312;PMS5003;38833;51.142;-0.974;2024-03-02T15:49:45;1;1;
44312;PMS5003;38833;51.142;-0.974;2024-03-02T15:52:19;1;1;
44312;PMS5003;38833;51.142;-0.974;2024-03-02T15:54:52;2;2;
44312;PMS5003;38833;51.142;-0.974;2024-03-02T15:57:25;1;1;
44312;PMS5003;38833;51.142;-0.974;2024-03-02T15:59:59;2;2;
44312;PMS5003;38833;51.142;-0.974;2024-03-02T16:02:32;0;0;
44312;PMS5003;38833;51.142;-0.974;2024-03-02T16:05:06;1;1;
44312;PMS5003;38833;51.142;-0.974;2024-03-02T16:07:39;1;1;
44312;PMS5003;38833;51.142;-0.974;2024-03-02T16:10:13;1;1;
44312;PMS5003;38833;51.142;-0.974;2024-03-02T16:12:46;1;1;
44312;PMS5003;38833;51.142;-0.974;2024-03-02T16:15:19;3;1;
44312;PMS5003;38833;51.142;-0.974;2024-03-02T16:17:53;1;1;
44312;PMS5003;38833;51.142;-0.974;2024-03-02T16:20:26;1;1;
44312;PMS5003;38833;51.142;-0.974;2024-03-02T16:23:00;2;2;
44312;PMS5003;38833;51.142;-0.974;2024-03-02T16:25:33;2;2;
44312;PMS5003;38833;51.142;-0.974;2024-03-02T16:28:07;0;0;
44312;PMS5003;38833;51.142;-0.974;2024-03-02T16:30:40;1;1;
44312;PMS5003;38833;51.142;-0.974;2024-03-02T16:33:13;1;1;
44312;PMS5003;38833;51.142;-0.974;2024-03-02T16:35:47;2;1;
44312;PMS5003;38833;51.142;-0.974;2024-03-02T16:38:21;2;2;
44312;PMS5003;38833;51.142;-0.974;2024-03-02T16:40:54;3;3;
44312;PMS5003;38833;51.142;-0.974;2024-03-02T16:43:27;0;0;
44312;PMS5003;38833;51.142;-0.974;2024-03-02T16:46:00;1;1;
44312;PMS5003;38833;51.142;-0.974;2024-03-02T16:48:34;4;3;
44312;PMS5003;38833;51.142;-0.974;2024-03-02T16:51:07;3;3;
44312;PMS5003;38833;51.142;-0.974;2024-03-02T16:53:40;2;2;
44312;PMS5003;38833;51.142;-0.974;2024-03-02T16:56:13;3;3;
44312;PMS5003;38833;51.142;-0.974;2024-03-02T16:58:47;2;2;
44312;PMS5003;38833;51.142;-0.974;2024-03-02T17:01:20;3;3;
44312;PMS5003;38833;51.142;-0.974;2024-03-02T17:03:53;2;2;
44312;PMS5003;38833;51.142;-0.974;2024-03-02T17:06:27;2;2;
44312;PMS5003;38833;51.142;-0.974;2024-03-02T17:09:00;4;3;
44312;PMS5003;38833;51.142;-0.974;2024-03-02T17:11:34;2;2;
44312;PMS5003;38833;51.142;-0.974;2024-03-02T17:14:07;2;2;
44312;PMS5003;38833;51.142;-0.974;2024-03-02T17:16:40;2;2;
44312;PMS5003;38833;51.142;-0.974;2024-03-02T17:19:14;2;2;